Time;durP1;ratioP1;P1;durP2;ratioP2;P2;SDS_P1;SDS_P2;PMS_P1;PMS_P2;Temp;Humidity;BMP_temperature;BMP_pressure;BME280_temperature;BME280_humidity;BME280_pressure;Samples;Min_cycle;Max_cycle;Signal;HPM_P1;HPM_P2
2021/01/13 00:00:40;;;;;;;;;;;;;;;20.90;43.54;100290.94;2061831;28;3802;-72
2021/01/13 00:01:40;;;;;;;;;;;;;;;20.91;43.46;100282.00;2061386;28;4113;-72
2021/01/13 00:02:40;;;;;;;;;;;;;;;20.91;43.48;100279.16;2061235;28;4217;-72
2021/01/13 00:03:40;;;;;;;;;;;;;;;20.89;43.52;100275.88;2061214;28;4111;-69
2021/01/13 00:04:40;;;;;;;;;;;;;;;20.91;43.65;100279.16;2059337;28;4090;-69
2021/01/13 00:05:41;;;;;;;;;;;;;;;20.95;43.43;100275.59;2061374;28;4385;-69
2021/01/13 00:06:41;;;;;;;;;;;;;;;20.95;43.45;100278.44;2061118;28;3800;-69
2021/01/13 00:07:41;;;;;;;;;;;;;;;20.91;43.56;100286.88;2060491;28;4134;-69
2021/01/13 00:08:41;;;;;;;;;;;;;;;20.91;43.57;100286.88;2061491;28;4018;-69
2021/01/13 00:09:41;;;;;;;;;;;;;;;20.91;43.61;100278.34;2060396;28;4284;-69
2021/01/13 00:10:41;;;;;;;;;;;;;;;20.89;43.50;100275.88;2061549;28;4892;-68
2021/01/13 00:11:42;;;;;;;;;;;;;;;20.88;43.54;100277.06;2059939;28;4428;-68
2021/01/13 00:12:42;;;;;;;;;;;;;;;20.87;43.52;100292.47;2060621;28;3775;-69
2021/01/13 00:13:42;;;;;;;;;;;;;;;20.87;43.80;100285.97;2059979;28;4051;-68
2021/01/13 00:14:45;;;;;;;;;;;;;;;20.87;43.62;100292.47;2060205;28;3795;-68
2021/01/13 00:15:45;;;;;;;;;;;;;;;20.89;43.29;100290.06;2054003;28;3956;-69
2021/01/13 00:16:45;;;;;;;;;;;;;;;20.91;43.41;100292.56;2051621;28;4362;-68
2021/01/13 00:17:45;;;;;;;;;;;;;;;20.90;43.74;100286.06;2058048;28;4048;-69
2021/01/13 00:18:45;;;;;;;;;;;;;;;20.91;43.53;100293.38;2058597;28;3772;-68
2021/01/13 00:19:45;;;;;;;;;;;;;;;20.90;43.59;100294.59;2060654;28;4258;-72
2021/01/13 00:20:45;;;;;;;;;;;;;;;20.91;43.63;100286.88;2060114;28;3820;-71
2021/01/13 00:21:45;;;;;;;;;;;;;;;20.93;43.46;100289.38;2060742;28;3776;-71
2021/01/13 00:22:46;;;;;;;;;;;;;;;20.90;43.69;100294.59;2061889;28;4216;-71
2021/01/13 00:23:46;;;;;;;;;;;;;;;20.89;43.73;100294.94;2061526;28;4253;-72
2021/01/13 00:24:46;;;;;;;;;;;;;;;20.86;43.64;100296.50;2060037;28;3944;-72
2021/01/13 00:25:46;;;;;;;;;;;;;;;20.87;43.73;100291.66;2060938;28;3887;-72
2021/01/13 00:26:46;;;;;;;;;;;;;;;20.87;43.85;100294.50;2061166;28;3828;-72
2021/01/13 00:27:46;;;;;;;;;;;;;;;20.86;43.72;100295.69;2060522;28;4057;-72
2021/01/13 00:28:46;;;;;;;;;;;;;;;20.88;43.72;100299.00;2062691;28;3972;-71
2021/01/13 00:29:46;;;;;;;;;;;;;;;20.87;43.81;100298.16;2060151;28;3819;-72
2021/01/13 00:30:46;;;;;;;;;;;;;;;20.85;43.70;100285.50;2060279;28;4113;-72
2021/01/13 00:31:46;;;;;;;;;;;;;;;20.86;43.67;100279.44;2060117;28;4049;-70
2021/01/13 00:32:46;;;;;;;;;;;;;;;20.85;43.85;100280.66;2061165;28;4954;-71
2021/01/13 00:33:46;;;;;;;;;;;;;;;20.85;43.72;100283.47;2061048;28;3884;-70
2021/01/13 00:34:47;;;;;;;;;;;;;;;20.86;43.76;100285.13;2061045;28;4150;-71
2021/01/13 00:35:47;;;;;;;;;;;;;;;20.85;43.71;100289.16;2060986;28;3814;-71
2021/01/13 00:36:47;;;;;;;;;;;;;;;20.85;43.93;100294.03;2061635;28;4341;-71
2021/01/13 00:37:47;;;;;;;;;;;;;;;20.88;43.78;100282.75;2060494;28;3908;-70
2021/01/13 00:38:47;;;;;;;;;;;;;;;20.91;43.77;100292.56;2060312;28;3914;-70
2021/01/13 00:39:47;;;;;;;;;;;;;;;20.91;43.76;100295.41;2060297;28;4267;-69
2021/01/13 00:40:47;;;;;;;;;;;;;;;20.93;43.80;100286.53;2061067;28;4416;-69
2021/01/13 00:41:47;;;;;;;;;;;;;;;20.94;43.68;100291.84;2059214;28;3798;-69
2021/01/13 00:42:47;;;;;;;;;;;;;;;20.94;43.54;100294.69;2059887;28;3934;-69
2021/01/13 00:43:47;;;;;;;;;;;;;;;20.94;43.52;100288.16;2060591;28;4464;-69
2021/01/13 00:44:48;;;;;;;;;;;;;;;20.94;43.53;100293.84;2061337;28;3968;-69
2021/01/13 00:45:48;;;;;;;;;;;;;;;20.91;43.66;100295.41;2062140;28;4049;-68
2021/01/13 00:46:48;;;;;;;;;;;;;;;20.91;43.61;100295.41;2061234;28;4970;-69
2021/01/13 00:47:48;;;;;;;;;;;;;;;20.94;43.70;100294.69;2060809;28;4252;-69
2021/01/13 00:48:48;;;;;;;;;;;;;;;20.93;43.72;100297.91;2061165;28;3922;-72
2021/01/13 00:49:48;;;;;;;;;;;;;;;20.97;43.69;100284.59;2062358;28;4446;-72
2021/01/13 00:50:48;;;;;;;;;;;;;;;20.94;43.69;100302.38;2061252;28;3788;-72
2021/01/13 00:51:48;;;;;;;;;;;;;;;20.91;43.69;100299.06;2060638;28;3897;-72
2021/01/13 00:52:48;;;;;;;;;;;;;;;20.89;43.69;100290.06;2060593;28;3949;-72
2021/01/13 00:53:48;;;;;;;;;;;;;;;20.88;43.78;100305.50;2061089;28;3894;-72
2021/01/13 00:54:48;;;;;;;;;;;;;;;20.89;43.91;100304.28;2061774;28;4007;-74
2021/01/13 00:55:48;;;;;;;;;;;;;;;20.87;43.78;100308.72;2060888;28;4258;-71
2021/01/13 00:56:48;;;;;;;;;;;;;;;20.87;43.86;100301.00;2061361;28;3892;-70
2021/01/13 00:57:49;;;;;;;;;;;;;;;20.87;43.65;100295.31;2060684;28;3992;-71
2021/01/13 00:58:49;;;;;;;;;;;;;;;20.87;43.65;100294.50;2060978;28;4064;-70
2021/01/13 00:59:49;;;;;;;;;;;;;;;20.87;43.83;100297.34;2060391;28;4208;-70
2021/01/13 01:00:49;;;;;;;;;;;;;;;20.88;43.92;100299.00;2061470;28;3778;-70
2021/01/13 01:01:49;;;;;;;;;;;;;;;20.92;43.71;100299.91;2059409;28;4247;-72
2021/01/13 01:02:49;;;;;;;;;;;;;;;20.91;43.78;100304.75;2061212;28;3942;-72
2021/01/13 01:03:49;;;;;;;;;;;;;;;20.93;43.54;100306.44;2059294;28;4389;-70
2021/01/13 01:04:49;;;;;;;;;;;;;;;20.97;43.65;100301.66;2058155;28;3941;-70
2021/01/13 01:05:49;;;;;;;;;;;;;;;20.96;43.71;100303.69;2061060;28;3786;-70
2021/01/13 01:06:49;;;;;;;;;;;;;;;20.96;43.74;100302.84;2060262;28;4360;-70
2021/01/13 01:07:49;;;;;;;;;;;;;;;21.06;43.47;100310.81;2061567;28;4058;-70
2021/01/13 01:08:50;;;;;;;;;;;;;;;21.06;43.64;100316.50;2060502;28;3800;-70
2021/01/13 01:09:50;;;;;;;;;;;;;;;21.04;43.68;100311.22;2059930;28;4154;-72
2021/01/13 01:10:50;;;;;;;;;;;;;;;21.10;43.69;100321.09;2060874;28;4042;-70
2021/01/13 01:11:50;;;;;;;;;;;;;;;21.10;43.51;100318.28;2058069;28;3801;-68
2021/01/13 01:12:50;;;;;;;;;;;;;;;21.07;43.72;100323.88;2060725;28;3864;-68
2021/01/13 01:13:50;;;;;;;;;;;;;;;20.98;43.77;100318.38;2060339;28;4017;-68
2021/01/13 01:14:50;;;;;;;;;;;;;;;20.97;43.84;100319.53;2059564;28;3925;-68
2021/01/13 01:15:50;;;;;;;;;;;;;;;20.94;44.14;100325.13;2060296;28;3893;-68
2021/01/13 01:16:50;;;;;;;;;;;;;;;20.88;44.19;100333.13;2061794;28;4014;-68
2021/01/13 01:17:50;;;;;;;;;;;;;;;20.85;44.14;100326.13;2060996;28;4357;-68
2021/01/13 01:18:51;;;;;;;;;;;;;;;20.82;44.32;100326.03;2061178;28;4276;-69
2021/01/13 01:19:51;;;;;;;;;;;;;;;20.83;44.28;100328.50;2060580;28;4054;-68
2021/01/13 01:20:51;;;;;;;;;;;;;;;20.83;44.30;100325.66;2060360;28;3777;-69
2021/01/13 01:21:51;;;;;;;;;;;;;;;20.80;44.34;100332.06;2058957;28;3772;-68
2021/01/13 01:22:51;;;;;;;;;;;;;;;20.79;44.22;100327.59;2060814;28;3990;-68
2021/01/13 01:23:51;;;;;;;;;;;;;;;20.81;44.28;100338.59;2060098;28;3748;-68
2021/01/13 01:24:51;;;;;;;;;;;;;;;20.82;44.26;100332.56;2059342;28;3972;-69
2021/01/13 01:25:51;;;;;;;;;;;;;;;20.84;44.22;100341.56;2060979;28;4294;-68
2021/01/13 01:26:51;;;;;;;;;;;;;;;20.82;44.33;100329.72;2060469;28;3817;-69
2021/01/13 01:27:51;;;;;;;;;;;;;;;20.80;44.35;100332.06;2060413;28;3972;-69
2021/01/13 01:28:51;;;;;;;;;;;;;;;20.81;44.29;100339.41;2060716;28;3792;-68
2021/01/13 01:29:51;;;;;;;;;;;;;;;20.81;44.25;100336.56;2061810;28;3811;-68
2021/01/13 01:30:52;;;;;;;;;;;;;;;20.81;44.24;100338.59;2060577;28;3963;-68
2021/01/13 01:31:52;;;;;;;;;;;;;;;20.81;44.24;100339.41;2060057;28;4138;-68
2021/01/13 01:32:52;;;;;;;;;;;;;;;20.83;44.33;100344.75;2055424;28;4006;-68
2021/01/13 01:33:52;;;;;;;;;;;;;;;20.84;44.33;100347.25;2055303;28;4576;-68
2021/01/13 01:34:52;;;;;;;;;;;;;;;20.87;44.37;100337.97;2061766;28;3936;-68
2021/01/13 01:35:52;;;;;;;;;;;;;;;20.86;44.47;100353.38;2060638;28;3766;-68
2021/01/13 01:36:52;;;;;;;;;;;;;;;20.83;44.34;100345.56;2061478;28;3926;-67
2021/01/13 01:37:52;;;;;;;;;;;;;;;20.85;44.47;100346.03;2060004;28;4028;-70
2021/01/13 01:38:52;;;;;;;;;;;;;;;20.85;44.35;100346.03;2060608;28;3789;-69
2021/01/13 01:39:52;;;;;;;;;;;;;;;20.84;44.36;100344.41;2061162;28;3866;-69
2021/01/13 01:40:52;;;;;;;;;;;;;;;20.84;44.48;100349.22;2060946;28;4044;-69
2021/01/13 01:41:52;;;;;;;;;;;;;;;20.80;44.39;100342.63;2059639;28;3986;-69
2021/01/13 01:42:53;;;;;;;;;;;;;;;20.80;44.34;100348.31;2062782;28;3974;-68
2021/01/13 01:43:53;;;;;;;;;;;;;;;20.80;44.37;100345.47;2063133;28;3896;-69
2021/01/13 01:44:53;;;;;;;;;;;;;;;20.80;44.64;100356.84;2062167;28;3824;-69
2021/01/13 01:45:53;;;;;;;;;;;;;;;20.83;44.53;100350.44;2061727;28;4215;-69
2021/01/13 01:46:53;;;;;;;;;;;;;;;20.80;44.65;100356.84;2062580;28;3982;-69
2021/01/13 01:47:53;;;;;;;;;;;;;;;20.78;44.66;100360.03;2062582;28;3989;-69
2021/01/13 01:48:53;;;;;;;;;;;;;;;20.79;44.74;100358.06;2062667;28;4236;-69
2021/01/13 01:49:53;;;;;;;;;;;;;;;20.77;44.82;100361.25;2061723;28;4021;-69
2021/01/13 01:50:55;;;;;;;;;;;;;;;20.76;44.75;100359.59;2062380;28;4096;-69
2021/01/13 01:51:55;;;;;;;;;;;;;;;20.76;44.78;100361.59;2061209;28;4014;-69
2021/01/13 01:52:55;;;;;;;;;;;;;;;20.74;44.74;100359.13;2063208;28;4903;-69
2021/01/13 01:53:55;;;;;;;;;;;;;;;20.74;44.98;100364.81;2062480;28;3923;-68
2021/01/13 01:54:55;;;;;;;;;;;;;;;20.74;44.74;100364.81;2062483;28;3801;-69
2021/01/13 01:55:55;;;;;;;;;;;;;;;20.75;44.82;100369.28;2062128;28;4467;-69
2021/01/13 01:56:55;;;;;;;;;;;;;;;20.76;44.82;100368.13;2062015;28;3766;-69
2021/01/13 01:57:56;;;;;;;;;;;;;;;20.76;44.91;100370.97;2063286;28;3937;-69
2021/01/13 01:58:56;;;;;;;;;;;;;;;20.75;45.16;100357.94;2062488;28;4373;-69
2021/01/13 01:59:56;;;;;;;;;;;;;;;20.76;44.91;100368.13;2062491;28;3798;-69
2021/01/13 02:00:56;;;;;;;;;;;;;;;20.79;45.20;100363.72;2061786;28;4055;-69
2021/01/13 02:01:56;;;;;;;;;;;;;;;20.78;45.10;100364.91;2061339;28;4986;-69
2021/01/13 02:02:56;;;;;;;;;;;;;;;20.77;44.89;100371.78;2062288;28;3914;-69
2021/01/13 02:03:56;;;;;;;;;;;;;;;20.78;45.22;100368.56;2063093;28;4380;-69
2021/01/13 02:04:56;;;;;;;;;;;;;;;20.80;45.27;100374.72;2062799;28;4107;-69
2021/01/13 02:05:56;;;;;;;;;;;;;;;20.77;45.14;100360.41;2063495;28;4262;-68
2021/01/13 02:06:56;;;;;;;;;;;;;;;20.80;45.05;100359.69;2062785;28;4178;-69
2021/01/13 02:07:57;;;;;;;;;;;;;;;20.78;44.99;100367.75;2063359;28;3871;-69
2021/01/13 02:08:57;;;;;;;;;;;;;;;20.77;45.12;100364.09;2062692;28;3761;-68
2021/01/13 02:09:57;;;;;;;;;;;;;;;20.79;45.11;100366.56;2062363;28;3876;-68
2021/01/13 02:10:57;;;;;;;;;;;;;;;20.79;45.11;100366.56;2062798;28;3981;-68
2021/01/13 02:11:57;;;;;;;;;;;;;;;20.76;45.12;100364.44;2061860;28;3816;-68
2021/01/13 02:12:57;;;;;;;;;;;;;;;20.79;45.13;100358.06;2061956;28;4393;-69
2021/01/13 02:13:57;;;;;;;;;;;;;;;20.79;44.98;100364.56;2063680;28;3913;-69
2021/01/13 02:14:57;;;;;;;;;;;;;;;20.76;45.02;100372.97;2059948;28;4986;-68
2021/01/13 02:15:57;;;;;;;;;;;;;;;20.77;45.09;100366.09;2063219;28;3923;-69
2021/01/13 02:16:58;;;;;;;;;;;;;;;20.74;45.15;100370.50;2061788;28;4443;-69
2021/01/13 02:17:58;;;;;;;;;;;;;;;20.73;45.07;100363.16;2063071;28;3832;-69
2021/01/13 02:18:58;;;;;;;;;;;;;;;20.71;45.19;100378.94;2061956;28;4378;-68
2021/01/13 02:19:58;;;;;;;;;;;;;;;20.69;45.19;100371.56;2062487;28;4077;-68
2021/01/13 02:20:58;;;;;;;;;;;;;;;20.73;45.26;100373.69;2061381;28;3770;-68
2021/01/13 02:21:59;;;;;;;;;;;;;;;20.71;45.15;100376.91;2061084;28;3770;-69
2021/01/13 02:22:59;;;;;;;;;;;;;;;20.73;45.29;100368.84;2061740;28;4608;-69
2021/01/13 02:23:59;;;;;;;;;;;;;;;20.75;45.13;100354.25;2061411;28;3795;-69
2021/01/13 02:24:59;;;;;;;;;;;;;;;20.76;45.44;100370.97;2062237;28;4353;-69
2021/01/13 02:25:59;;;;;;;;;;;;;;;20.85;45.29;100367.97;2053252;28;3955;-69
2021/01/13 02:26:59;;;;;;;;;;;;;;;20.93;44.92;100375.50;2052054;28;3777;-68
2021/01/13 02:27:59;;;;;;;;;;;;;;;20.95;44.97;100375.13;2060214;28;4012;-69
2021/01/13 02:29:00;;;;;;;;;;;;;;;20.99;44.91;100376.88;2059090;28;4943;-69
2021/01/13 02:30:00;;;;;;;;;;;;;;;21.01;44.82;100365.16;2060317;28;4360;-69
2021/01/13 02:31:00;;;;;;;;;;;;;;;21.04;44.77;100370.94;2060852;28;3871;-69
2021/01/13 02:32:00;;;;;;;;;;;;;;;21.03;44.80;100374.13;2060658;28;4145;-69
2021/01/13 02:33:00;;;;;;;;;;;;;;;20.99;44.78;100374.03;2062590;28;4384;-68
2021/01/13 02:34:00;;;;;;;;;;;;;;;21.01;44.76;100376.53;2062456;28;3882;-69
2021/01/13 02:35:01;;;;;;;;;;;;;;;20.97;44.91;100367.88;2062138;28;4396;-68
2021/01/13 02:36:01;;;;;;;;;;;;;;;20.97;45.03;100361.38;2061524;28;3773;-69
2021/01/13 02:37:01;;;;;;;;;;;;;;;20.97;44.75;100379.25;2061234;28;4221;-69
2021/01/13 02:38:01;;;;;;;;;;;;;;;21.01;44.96;100368.00;2061973;28;3895;-69
2021/01/13 02:39:01;;;;;;;;;;;;;;;20.98;44.93;100363.00;2062598;28;4381;-69
2021/01/13 02:40:01;;;;;;;;;;;;;;;20.99;44.67;100365.50;2061929;28;4086;-69
2021/01/13 02:41:01;;;;;;;;;;;;;;;20.99;44.74;100362.66;2061695;28;3910;-69
2021/01/13 02:42:01;;;;;;;;;;;;;;;20.99;44.98;100374.03;2061868;28;4227;-68
2021/01/13 02:43:02;;;;;;;;;;;;;;;21.01;44.97;100377.34;2062843;28;4001;-68
2021/01/13 02:44:02;;;;;;;;;;;;;;;21.02;44.88;100366.78;2061085;28;4041;-67
2021/01/13 02:45:02;;;;;;;;;;;;;;;21.03;44.80;100359.91;2061596;28;4012;-66
2021/01/13 02:46:02;;;;;;;;;;;;;;;21.01;44.99;100360.28;2062121;28;3770;-67
2021/01/13 02:47:02;;;;;;;;;;;;;;;21.00;44.96;100366.31;2062070;28;4331;-66
2021/01/13 02:48:02;;;;;;;;;;;;;;;20.97;44.89;100359.34;2060927;28;4025;-67
2021/01/13 02:49:03;;;;;;;;;;;;;;;20.95;44.93;100373.13;2061113;28;3989;-67
2021/01/13 02:50:03;;;;;;;;;;;;;;;20.98;44.95;100369.56;2061891;28;3924;-67
2021/01/13 02:51:03;;;;;;;;;;;;;;;20.97;45.00;100372.75;2061785;28;3846;-67
2021/01/13 02:52:03;;;;;;;;;;;;;;;20.96;45.08;100368.25;2061166;28;4039;-66
2021/01/13 02:53:03;;;;;;;;;;;;;;;20.94;45.11;100364.94;2062525;28;4176;-66
2021/01/13 02:54:03;;;;;;;;;;;;;;;20.95;45.08;100375.97;2061274;28;4445;-67
2021/01/13 02:55:03;;;;;;;;;;;;;;;20.97;45.27;100364.22;2062100;28;4184;-66
2021/01/13 02:56:03;;;;;;;;;;;;;;;20.95;45.32;100356.06;2061603;28;4183;-66
2021/01/13 02:57:03;;;;;;;;;;;;;;;20.95;44.89;100367.44;2063562;28;3914;-67
2021/01/13 02:58:03;;;;;;;;;;;;;;;20.97;45.24;100362.19;2061516;28;3929;-67
2021/01/13 02:59:03;;;;;;;;;;;;;;;20.97;45.23;100361.38;2061114;28;3987;-66
2021/01/13 03:00:03;;;;;;;;;;;;;;;21.01;45.17;100356.63;2061546;28;4185;-67
2021/01/13 03:01:04;;;;;;;;;;;;;;;21.02;45.36;100358.25;2061608;28;3928;-67
2021/01/13 03:02:04;;;;;;;;;;;;;;;21.04;45.21;100355.88;2060677;28;4044;-67
2021/01/13 03:03:04;;;;;;;;;;;;;;;21.05;45.26;100366.06;2061447;28;4174;-67
2021/01/13 03:04:04;;;;;;;;;;;;;;;21.08;45.37;100359.66;2061746;28;4074;-67
2021/01/13 03:05:04;;;;;;;;;;;;;;;21.10;45.24;100351.56;2060448;28;4183;-67
2021/01/13 03:06:04;;;;;;;;;;;;;;;21.09;45.32;100356.44;2061954;28;3939;-68
2021/01/13 03:07:04;;;;;;;;;;;;;;;21.10;45.15;100358.09;2062181;28;3985;-68
2021/01/13 03:08:04;;;;;;;;;;;;;;;21.10;45.23;100360.09;2061840;28;4692;-68
2021/01/13 03:09:05;;;;;;;;;;;;;;;21.10;45.36;100357.28;2061645;28;3780;-68
2021/01/13 03:10:05;;;;;;;;;;;;;;;21.08;45.35;100357.63;2061813;28;4073;-68
2021/01/13 03:11:05;;;;;;;;;;;;;;;21.08;45.34;100368.16;2053485;28;4145;-68
2021/01/13 03:12:05;;;;;;;;;;;;;;;21.10;45.16;100360.09;2051767;28;4102;-68
2021/01/13 03:13:05;;;;;;;;;;;;;;;21.07;45.38;100364.50;2062086;28;3882;-68
2021/01/13 03:14:05;;;;;;;;;;;;;;;21.03;45.37;100365.59;2061438;28;4231;-68
2021/01/13 03:15:05;;;;;;;;;;;;;;;20.96;45.53;100363.41;2060275;28;3844;-68
2021/01/13 03:16:05;;;;;;;;;;;;;;;20.96;45.65;100362.56;2061784;28;4356;-68
2021/01/13 03:17:05;;;;;;;;;;;;;;;20.91;45.54;100367.31;2061547;28;4259;-68
2021/01/13 03:18:05;;;;;;;;;;;;;;;20.92;45.58;100365.31;2063363;28;3857;-67
2021/01/13 03:19:05;;;;;;;;;;;;;;;20.91;45.57;100375.03;2061267;28;3980;-68
2021/01/13 03:20:06;;;;;;;;;;;;;;;20.90;45.49;100377.06;2060844;28;3889;-68
2021/01/13 03:21:06;;;;;;;;;;;;;;;20.90;45.72;100370.53;2061704;28;3978;-68
2021/01/13 03:22:06;;;;;;;;;;;;;;;20.88;45.57;100373.75;2061939;28;4164;-68
2021/01/13 03:23:06;;;;;;;;;;;;;;;20.87;45.65;100374.94;2061282;28;4092;-69
2021/01/13 03:24:06;;;;;;;;;;;;;;;20.88;45.59;100379.44;2061360;28;3856;-68
2021/01/13 03:25:06;;;;;;;;;;;;;;;20.87;45.53;100385.50;2061757;28;3912;-68
2021/01/13 03:26:06;;;;;;;;;;;;;;;20.88;45.54;100387.97;2061684;28;3935;-68
2021/01/13 03:27:06;;;;;;;;;;;;;;;20.88;45.37;100373.75;2060342;28;3809;-68
2021/01/13 03:28:06;;;;;;;;;;;;;;;20.88;45.61;100382.25;2061575;28;3884;-67
2021/01/13 03:29:07;;;;;;;;;;;;;;;20.89;45.43;100380.25;2062269;28;4351;-68
2021/01/13 03:30:07;;;;;;;;;;;;;;;20.87;45.50;100386.31;2062709;28;3775;-68
2021/01/13 03:31:07;;;;;;;;;;;;;;;20.87;45.46;100385.50;2061727;28;3852;-68
2021/01/13 03:32:07;;;;;;;;;;;;;;;20.84;45.56;100387.03;2059628;28;4015;-68
2021/01/13 03:33:07;;;;;;;;;;;;;;;20.86;45.59;100378.94;2061541;28;3813;-68
2021/01/13 03:34:07;;;;;;;;;;;;;;;20.83;45.32;100379.69;2061622;28;4359;-67
2021/01/13 03:35:07;;;;;;;;;;;;;;;20.83;45.42;100376.03;2061587;28;4157;-68
2021/01/13 03:36:07;;;;;;;;;;;;;;;20.80;45.52;100376.75;2061954;28;3914;-68
2021/01/13 03:37:08;;;;;;;;;;;;;;;20.76;45.57;100376.66;2061970;28;3796;-68
2021/01/13 03:38:08;;;;;;;;;;;;;;;20.77;45.67;100372.63;2061397;28;4215;-67
2021/01/13 03:39:08;;;;;;;;;;;;;;;20.78;45.54;100373.44;2060747;28;3831;-69
2021/01/13 03:40:08;;;;;;;;;;;;;;;20.75;45.61;100369.28;2061158;28;4315;-68
2021/01/13 03:41:08;;;;;;;;;;;;;;;20.75;45.41;100369.28;2062068;28;3844;-69
2021/01/13 03:42:08;;;;;;;;;;;;;;;20.73;45.61;100366.00;2061055;28;3757;-69
2021/01/13 03:43:08;;;;;;;;;;;;;;;20.73;45.61;100382.22;2062689;28;3929;-68
2021/01/13 03:44:09;;;;;;;;;;;;;;;20.75;45.50;100385.53;2062706;28;4038;-68
2021/01/13 03:45:09;;;;;;;;;;;;;;;20.74;45.55;100387.56;2060729;28;3775;-69
2021/01/13 03:46:09;;;;;;;;;;;;;;;20.71;45.63;100379.75;2061993;28;4212;-68
2021/01/13 03:47:09;;;;;;;;;;;;;;;20.72;45.46;100380.56;2061479;28;4217;-68
2021/01/13 03:48:09;;;;;;;;;;;;;;;20.70;45.59;100380.94;2061366;28;3780;-68
2021/01/13 03:49:09;;;;;;;;;;;;;;;20.68;45.46;100387.00;2062054;28;4126;-68
2021/01/13 03:50:09;;;;;;;;;;;;;;;20.67;45.50;100384.50;2061008;28;3987;-68
2021/01/13 03:51:09;;;;;;;;;;;;;;;20.67;45.55;100388.16;2061484;28;4142;-68
2021/01/13 03:52:09;;;;;;;;;;;;;;;20.66;45.59;100372.31;2060553;28;4052;-68
2021/01/13 03:53:09;;;;;;;;;;;;;;;20.65;45.64;100379.19;2062325;28;3825;-68
2021/01/13 03:54:10;;;;;;;;;;;;;;;20.64;45.61;100374.66;2061409;28;3769;-68
2021/01/13 03:55:10;;;;;;;;;;;;;;;20.63;45.60;100384.41;2060678;28;4001;-68
2021/01/13 03:56:10;;;;;;;;;;;;;;;20.64;45.47;100379.53;2060972;28;4379;-68
2021/01/13 03:57:10;;;;;;;;;;;;;;;20.66;45.50;100371.47;2061663;28;3919;-69
2021/01/13 03:58:10;;;;;;;;;;;;;;;20.66;45.55;100369.47;2062057;28;3951;-68
2021/01/13 03:59:10;;;;;;;;;;;;;;;20.66;45.34;100369.47;2060784;28;3775;-70
2021/01/13 04:00:10;;;;;;;;;;;;;;;20.68;45.45;100371.94;2060538;28;3903;-68
2021/01/13 04:01:11;;;;;;;;;;;;;;;20.66;45.50;100380.84;2060743;28;3747;-69
2021/01/13 04:02:11;;;;;;;;;;;;;;;20.69;45.45;100376.44;2061511;28;3884;-70
2021/01/13 04:03:11;;;;;;;;;;;;;;;20.72;45.39;100372.88;2061080;28;3764;-70
2021/01/13 04:04:11;;;;;;;;;;;;;;;20.73;45.27;100374.53;2061528;28;4008;-68
2021/01/13 04:05:11;;;;;;;;;;;;;;;20.73;45.19;100368.84;2051232;28;4382;-69
2021/01/13 04:06:11;;;;;;;;;;;;;;;20.74;45.27;100379.03;2052967;28;3769;-68
2021/01/13 04:07:11;;;;;;;;;;;;;;;20.75;45.22;100382.69;2061485;28;4311;-70
2021/01/13 04:08:11;;;;;;;;;;;;;;;20.75;45.13;100383.50;2061494;28;4158;-70
2021/01/13 04:09:11;;;;;;;;;;;;;;;20.75;45.15;100383.50;2061306;28;3903;-70
2021/01/13 04:10:11;;;;;;;;;;;;;;;20.76;45.22;100385.19;2061196;28;3950;-70
2021/01/13 04:11:11;;;;;;;;;;;;;;;20.77;45.21;100388.84;2060984;28;4315;-70
2021/01/13 04:12:12;;;;;;;;;;;;;;;20.75;45.24;100389.19;2061522;28;3752;-70
2021/01/13 04:13:12;;;;;;;;;;;;;;;20.75;45.20;100392.03;2060907;28;4055;-68
2021/01/13 04:14:12;;;;;;;;;;;;;;;20.78;45.02;100391.31;2061709;28;4032;-71
2021/01/13 04:15:13;;;;;;;;;;;;;;;20.78;45.13;100391.31;2060825;28;3929;-71
2021/01/13 04:16:13;;;;;;;;;;;;;;;20.77;45.10;100394.53;2061542;28;3865;-71
2021/01/13 04:17:13;;;;;;;;;;;;;;;20.76;45.20;100387.16;2061641;28;3734;-68
2021/01/13 04:18:13;;;;;;;;;;;;;;;20.74;45.32;100381.88;2053056;28;3749;-71
2021/01/13 04:19:13;;;;;;;;;;;;;;;20.76;45.29;100381.50;2052629;28;3922;-70
2021/01/13 04:20:13;;;;;;;;;;;;;;;20.75;45.15;100386.34;2061097;28;3853;-71
2021/01/13 04:21:14;;;;;;;;;;;;;;;20.74;45.18;100386.72;2059733;28;3885;-70
2021/01/13 04:22:14;;;;;;;;;;;;;;;20.75;45.31;100392.03;2062316;28;4022;-70
2021/01/13 04:23:14;;;;;;;;;;;;;;;20.75;45.25;100388.38;2061316;28;3913;-71
2021/01/13 04:24:14;;;;;;;;;;;;;;;20.73;45.21;100400.13;2060895;28;3737;-71
2021/01/13 04:25:14;;;;;;;;;;;;;;;20.71;45.26;100396.81;2061366;28;4363;-71
2021/01/13 04:26:14;;;;;;;;;;;;;;;20.70;45.12;100389.44;2061252;28;3689;-71
2021/01/13 04:27:15;;;;;;;;;;;;;;;20.69;45.34;100388.63;2061205;28;3985;-71
2021/01/13 04:28:15;;;;;;;;;;;;;;;20.69;45.38;100402.03;2061276;28;4217;-71
2021/01/13 04:29:15;;;;;;;;;;;;;;;20.71;45.22;100399.66;2061425;28;3784;-71
2021/01/13 04:30:15;;;;;;;;;;;;;;;20.72;45.29;100394.78;2060583;28;2005;-71
2021/01/13 04:31:15;;;;;;;;;;;;;;;20.71;45.21;100388.28;2061237;28;4161;-71
2021/01/13 04:32:15;;;;;;;;;;;;;;;20.71;45.31;100396.81;2061447;28;3801;-70
2021/01/13 04:33:15;;;;;;;;;;;;;;;20.70;45.40;100397.97;2061695;28;3843;-70
2021/01/13 04:34:15;;;;;;;;;;;;;;;20.69;45.26;100387.81;2061630;28;4094;-70
2021/01/13 04:35:15;;;;;;;;;;;;;;;20.68;45.42;100389.00;2060369;28;3986;-70
2021/01/13 04:36:15;;;;;;;;;;;;;;;20.66;45.20;100382.84;2060476;28;4333;-67
2021/01/13 04:37:15;;;;;;;;;;;;;;;20.65;45.33;100386.91;2060501;28;3884;-71
2021/01/13 04:38:15;;;;;;;;;;;;;;;20.66;45.42;100392.19;2053103;28;3958;-70
2021/01/13 04:39:15;;;;;;;;;;;;;;;20.65;45.68;100386.91;2052048;28;3786;-71
2021/01/13 04:40:16;;;;;;;;;;;;;;;20.67;45.36;100385.31;2060853;28;4287;-71
2021/01/13 04:41:19;;;;;;;;;;;;;;;20.65;45.52;100389.75;2059829;28;3785;-71
2021/01/13 04:42:19;;;;;;;;;;;;;;;20.64;45.57;100385.22;2061261;28;3900;-70
2021/01/13 04:43:19;;;;;;;;;;;;;;;20.63;45.36;100392.09;2061812;28;4499;-70
2021/01/13 04:44:19;;;;;;;;;;;;;;;20.60;45.45;100401.34;2059485;28;4015;-71
2021/01/13 04:45:19;;;;;;;;;;;;;;;20.61;45.40;100398.13;2061148;28;3997;-71
2021/01/13 04:46:19;;;;;;;;;;;;;;;20.60;45.62;100399.34;2062133;28;4024;-70
2021/01/13 04:47:19;;;;;;;;;;;;;;;20.62;45.45;100391.28;2061106;28;4030;-70
2021/01/13 04:48:19;;;;;;;;;;;;;;;20.63;45.40;100389.25;2060834;28;3945;-71
2021/01/13 04:49:19;;;;;;;;;;;;;;;20.63;45.42;100387.25;2060662;28;4028;-71
2021/01/13 04:50:19;;;;;;;;;;;;;;;20.60;45.40;100387.16;2061516;28;3847;-70
2021/01/13 04:51:20;;;;;;;;;;;;;;;20.61;45.52;100380.25;2060283;28;3914;-71
2021/01/13 04:52:20;;;;;;;;;;;;;;;20.62;45.55;100381.91;2061085;28;4116;-70
2021/01/13 04:53:20;;;;;;;;;;;;;;;20.62;45.56;100385.59;2060212;28;3846;-67
2021/01/13 04:54:20;;;;;;;;;;;;;;;20.62;45.53;100384.75;2061869;28;3810;-70
2021/01/13 04:55:20;;;;;;;;;;;;;;;20.64;45.45;100379.53;2060902;28;5860;-70
2021/01/13 04:56:20;;;;;;;;;;;;;;;20.67;45.38;100367.44;2060549;28;4410;-70
2021/01/13 04:57:20;;;;;;;;;;;;;;;20.66;45.47;100371.47;2061236;28;3767;-69
2021/01/13 04:58:20;;;;;;;;;;;;;;;20.65;45.42;100372.69;2061053;28;5279;-70
2021/01/13 04:59:20;;;;;;;;;;;;;;;20.67;45.29;100379.63;2061080;28;3929;-70
2021/01/13 05:00:20;;;;;;;;;;;;;;;20.65;45.49;100381.22;2061414;28;3998;-70
2021/01/13 05:01:20;;;;;;;;;;;;;;;20.67;45.41;100379.63;2059430;28;3897;-70
2021/01/13 05:02:20;;;;;;;;;;;;;;;20.67;45.40;100364.59;2060687;28;4247;-71
2021/01/13 05:03:21;;;;;;;;;;;;;;;20.71;45.32;100371.22;2061114;28;3788;-71
2021/01/13 05:04:21;;;;;;;;;;;;;;;20.71;45.38;100362.69;2061693;28;4439;-71
2021/01/13 05:05:21;;;;;;;;;;;;;;;20.72;45.31;100363.53;2062045;28;3802;-71
2021/01/13 05:06:21;;;;;;;;;;;;;;;20.72;45.40;100366.38;2060953;28;4000;-71
2021/01/13 05:07:21;;;;;;;;;;;;;;;20.74;45.35;100367.66;2061044;28;4041;-71
2021/01/13 05:08:21;;;;;;;;;;;;;;;20.75;45.19;100374.97;2061127;28;3975;-71
2021/01/13 05:09:21;;;;;;;;;;;;;;;20.76;45.31;100370.13;2060724;28;4414;-71
2021/01/13 05:10:21;;;;;;;;;;;;;;;20.76;45.12;100376.66;2060891;28;4663;-72
2021/01/13 05:11:21;;;;;;;;;;;;;;;20.77;45.28;100375.44;2058888;28;4938;-71
2021/01/13 05:12:21;;;;;;;;;;;;;;;20.78;45.30;100377.09;2060347;28;4346;-67
2021/01/13 05:13:21;;;;;;;;;;;;;;;20.79;45.31;100370.25;2059486;28;3925;-70